Time;durP1;ratioP1;P1;durP2;ratioP2;P2;SDS_P1;SDS_P2;PMS_P1;PMS_P2;Temp;Humidity;BMP_temperature;BMP_pressure;BME280_temperature;BME280_humidity;BME280_pressure;Samples;Min_cycle;Max_cycle;Signal;HPM_P1;HPM_P2
2023/06/28 00:04:45;;;;;;;;;;;;;;;22.52;40.26;100189.00;41721083;28;20001;-78
2023/06/28 00:24:50;;;;;;;;;;;;;;;22.55;40.49;100186.06;41726367;28;19949;-77
2023/06/28 00:44:50;;;;;;;;;;;;;;;22.60;40.32;100190.13;41734789;28;20301;-78
2023/06/28 01:04:57;;;;;;;;;;;;;;;22.50;40.61;100185.63;41734368;28;19932;-77
2023/06/28 01:24:57;;;;;;;;;;;;;;;22.51;40.51;100187.31;41735701;28;19936;-78
2023/06/28 01:44:58;;;;;;;;;;;;;;;22.42;41.09;100198.66;41712777;28;19933;-77
2023/06/28 02:04:58;;;;;;;;;;;;;;;22.36;40.27;100185.94;41724994;28;19975;-77
2023/06/28 02:24:58;;;;;;;;;;;;;;;22.36;40.38;100180.69;41714005;28;19936;-77
2023/06/28 02:44:58;;;;;;;;;;;;;;;22.30;40.39;100178.56;41723849;28;19928;-78
2023/06/28 03:05:00;;;;;;;;;;;;;;;22.16;40.91;100182.38;41697272;28;20402;-79
2023/06/28 03:25:00;;;;;;;;;;;;;;;22.16;41.49;100177.13;41728907;28;19929;-78
2023/06/28 03:45:00;;;;;;;;;;;;;;;22.03;42.47;100182.59;41734139;28;20369;-79
2023/06/28 04:05:01;;;;;;;;;;;;;;;22.00;42.57;100188.13;41739190;28;19936;-80
2023/06/28 04:25:02;;;;;;;;;;;;;;;21.99;43.69;100202.28;41556191;28;19929;-77
2023/06/28 04:45:02;;;;;;;;;;;;;;;21.91;44.29;100206.38;41565990;28;19975;-78
2023/06/28 05:05:03;;;;;;;;;;;;;;;21.84;44.20;100226.31;41566150;28;19944;-78
2023/06/28 05:25:03;;;;;;;;;;;;;;;21.90;43.23;100244.25;41762587;28;20423;-79
2023/06/28 05:45:04;;;;;;;;;;;;;;;21.93;42.76;100251.06;41785255;28;19924;-78
2023/06/28 06:05:05;;;;;;;;;;;;;;;22.10;42.38;100241.75;41782026;28;20278;-79
2023/06/28 06:25:05;;;;;;;;;;;;;;;22.65;42.58;100260.00;41791510;28;19931;-78
2023/06/28 06:45:06;;;;;;;;;;;;;;;22.97;42.48;100290.72;41749594;28;20336;-78
2023/06/28 07:05:06;;;;;;;;;;;;;;;23.27;41.84;100296.13;41726416;28;19929;-79
2023/06/28 07:25:07;;;;;;;;;;;;;;;23.49;42.23;100303.00;41720428;28;19935;-82
2023/06/28 07:45:09;;;;;;;;;;;;;;;23.54;42.18;100308.72;41735177;28;20305;-80
2023/06/28 08:05:09;;;;;;;;;;;;;;;23.72;42.44;100300.94;41766223;28;20023;-80
2023/06/28 08:25:10;;;;;;;;;;;;;;;23.85;42.28;100297.19;41806654;28;19925;-79
2023/06/28 08:45:11;;;;;;;;;;;;;;;23.96;42.41;100295.28;41787351;28;19963;-79
2023/06/28 09:05:11;;;;;;;;;;;;;;;24.06;42.42;100295.28;41783922;28;19924;-80
2023/06/28 09:25:14;;;;;;;;;;;;;;;24.16;42.27;100286.47;41781238;28;19929;-80
2023/06/28 09:45:28;;;;;;;;;;;;;;;24.22;42.29;100259.50;41786995;28;19993;-80
2023/06/28 10:05:30;;;;;;;;;;;;;;;24.30;42.44;100249.84;41780699;28;20404;-81
2023/06/28 10:25:31;;;;;;;;;;;;;;;24.36;42.21;100237.03;41779870;28;20287;-80
2023/06/28 10:45:35;;;;;;;;;;;;;;;24.43;42.39;100211.66;41794488;28;19909;-79
2023/06/28 11:05:36;;;;;;;;;;;;;;;24.53;42.40;100208.97;41798496;28;19936;-80
2023/06/28 11:25:40;;;;;;;;;;;;;;;24.64;42.24;100194.72;41856298;28;19951;-78
2023/06/28 11:45:40;;;;;;;;;;;;;;;24.75;42.21;100191.91;41908005;28;19971;-81
2023/06/28 12:05:51;;;;;;;;;;;;;;;24.85;42.33;100162.72;41891767;28;20359;-80
2023/06/28 12:25:51;;;;;;;;;;;;;;;24.95;42.20;100160.88;41823574;28;20024;-80
2023/06/28 12:45:56;;;;;;;;;;;;;;;25.09;41.89;100146.25;41815245;28;19931;-81
2023/06/28 13:05:56;;;;;;;;;;;;;;;25.22;41.72;100167.09;41806978;28;19932;-80
2023/06/28 13:25:58;;;;;;;;;;;;;;;25.29;41.58;100172.59;41811612;28;19924;-80
2023/06/28 13:45:58;;;;;;;;;;;;;;;25.39;41.60;100182.19;41813773;28;19920;-81
2023/06/28 14:05:58;;;;;;;;;;;;;;;25.51;41.28;100188.09;41810412;28;20389;-80
2023/06/28 14:25:59;;;;;;;;;;;;;;;25.52;41.41;100215.44;41865069;28;20424;-80
2023/06/28 14:45:59;;;;;;;;;;;;;;;25.45;41.70;100214.34;41856516;28;19909;-80
2023/06/28 15:05:59;;;;;;;;;;;;;;;25.44;41.70;100210.03;41855418;28;20404;-81
2023/06/28 15:26:00;;;;;;;;;;;;;;;25.50;41.76;100204.13;41858815;28;20043;-81
2023/06/28 15:46:00;;;;;;;;;;;;;;;25.36;34.75;100185.09;41805800;28;19936;-81
2023/06/28 16:06:00;;;;;;;;;;;;;;;25.21;33.17;100168.88;41834278;28;19928;-80
2023/06/28 16:26:00;;;;;;;;;;;;;;;25.07;33.45;100158.81;41780320;28;19928;-78
2023/06/28 16:46:01;;;;;;;;;;;;;;;24.94;32.94;100167.97;41727562;28;20019;-77
2023/06/28 17:06:01;;;;;;;;;;;;;;;24.84;34.25;100175.13;41763708;28;19940;-78
2023/06/28 17:26:02;;;;;;;;;;;;;;;24.64;33.32;100189.44;41747234;28;20023;-78
2023/06/28 17:46:04;;;;;;;;;;;;;;;24.33;33.55;100193.16;41776423;28;19928;-76
2023/06/28 18:06:05;;;;;;;;;;;;;;;24.19;34.68;100218.25;41746427;28;19940;-77
2023/06/28 18:26:06;;;;;;;;;;;;;;;24.06;35.00;100207.13;41722962;28;19944;-77
2023/06/28 18:46:07;;;;;;;;;;;;;;;23.89;35.42;100228.03;41751742;28;20401;-79
2023/06/28 19:06:07;;;;;;;;;;;;;;;23.67;35.64;100248.47;41718199;28;20348;-80
2023/06/28 19:26:08;;;;;;;;;;;;;;;23.52;35.83;100267.53;41739777;28;20425;-78
2023/06/28 19:46:08;;;;;;;;;;;;;;;23.17;36.56;100273.16;41712414;28;19928;-79
2023/06/28 20:06:09;;;;;;;;;;;;;;;23.07;36.96;100296.03;41750739;28;20349;-80
2023/06/28 20:26:10;;;;;;;;;;;;;;;22.87;37.09;100308.31;41771093;28;19933;-78
2023/06/28 20:46:11;;;;;;;;;;;;;;;22.88;37.98;100306.53;41753741;28;19933;-78
2023/06/28 21:06:14;;;;;;;;;;;;;;;22.79;37.86;100301.06;41752747;28;19975;-78
2023/06/28 21:26:15;;;;;;;;;;;;;;;22.74;38.05;100305.06;41764895;28;20401;-79
2023/06/28 21:46:15;;;;;;;;;;;;;;;22.61;39.06;100302.66;41731307;28;19924;-80
2023/06/28 22:06:15;;;;;;;;;;;;;;;22.52;39.55;100305.09;41737629;28;19932;-79
2023/06/28 22:26:18;;;;;;;;;;;;;;;22.32;40.18;100305.91;41748877;28;19932;-79
2023/06/28 22:46:18;;;;;;;;;;;;;;;22.19;40.63;100319.25;41756514;28;19970;-78
2023/06/28 23:06:20;;;;;;;;;;;;;;;22.07;41.21;100319.31;41728600;28;22153;-78
2023/06/28 23:26:24;;;;;;;;;;;;;;;21.85;41.59;100300.94;41735304;28;19932;-79
2023/06/28 23:46:24;;;;;;;;;;;;;;;21.64;42.20;100301.75;41758814;28;19951;-78
